Time;durP1;ratioP1;P1;durP2;ratioP2;P2;SDS_P1;SDS_P2;PMS_P1;PMS_P2;Temp;Humidity;BMP_temperature;BMP_pressure;BME280_temperature;BME280_humidity;BME280_pressure;Samples;Min_cycle;Max_cycle;Signal;HPM_P1;HPM_P2
2021/04/23 00:01:44;;;;;;;20.90;9.27;;;7.20;88.00;;;;;;8345879;28;20446;-72
2021/04/23 00:05:46;;;;;;;15.70;11.20;;;7.20;88.40;;;;;;8331855;28;20533;-73
2021/04/23 00:09:49;;;;;;;29.40;10.13;;;7.10;88.40;;;;;;8341143;28;20450;-73
2021/04/23 00:13:49;;;;;;;22.00;10.07;;;7.10;88.70;;;;;;8341976;28;20429;-72
2021/04/23 00:18:01;;;;;;;24.90;10.60;;;7.00;88.80;;;;;;8343064;28;20548;-73
2021/04/23 00:22:03;;;;;;;24.70;11.00;;;6.90;89.10;;;;;;8340940;28;20501;-73
2021/04/23 00:26:05;;;;;;;18.60;10.47;;;6.90;89.70;;;;;;8345937;28;20449;-74
2021/04/23 00:30:10;;;;;;;18.47;10.63;;;6.80;90.00;;;;;;8353148;28;20446;-73
2021/04/23 00:34:11;;;;;;;29.43;10.00;;;6.70;90.10;;;;;;8342609;28;20462;-73
2021/04/23 00:38:17;;;;;;;20.00;11.00;;;6.70;90.30;;;;;;8338078;28;20453;-73
2021/04/23 00:42:18;;;;;;;22.53;11.93;;;6.60;90.50;;;;;;8347026;28;20230;-74
2021/04/23 00:46:18;;;;;;;17.93;10.47;;;6.60;90.70;;;;;;8345018;28;20449;-73
2021/04/23 00:50:30;;;;;;;19.60;10.43;;;6.60;90.70;;;;;;8345385;28;20191;-73
2021/04/23 00:54:38;;;;;;;17.07;10.73;;;6.60;90.80;;;;;;8356947;28;20207;-73
2021/04/23 00:58:49;;;;;;;29.30;12.60;;;6.50;90.90;;;;;;8363676;28;20517;-73
2021/04/23 01:02:50;;;;;;;23.20;10.40;;;6.50;91.00;;;;;;8338845;28;20453;-73
2021/04/23 01:06:51;;;;;;;20.63;11.03;;;6.50;91.10;;;;;;8347149;28;20440;-72
2021/04/23 01:10:58;;;;;;;23.10;11.97;;;6.40;91.10;;;;;;8353568;28;20469;-72
2021/04/23 01:15:03;;;;;;;22.90;11.80;;;6.40;91.10;;;;;;8333117;28;20518;-73
2021/04/23 01:19:07;;;;;;;23.43;10.40;;;6.30;91.30;;;;;;8348187;28;20995;-73
2021/04/23 01:23:08;;;;;;;26.23;10.33;;;6.20;91.30;;;;;;8348522;28;20526;-72
2021/04/23 01:27:16;;;;;;;27.20;11.70;;;6.20;91.40;;;;;;8355221;28;20440;-73
2021/04/23 01:31:20;;;;;;;21.80;10.80;;;6.10;91.50;;;;;;8347493;28;20205;-74
2021/04/23 01:35:27;;;;;;;20.07;10.40;;;6.00;91.70;;;;;;8338627;28;20452;-73
2021/04/23 01:39:30;;;;;;;23.23;12.17;;;6.00;91.80;;;;;;8345798;28;20503;-73
2021/04/23 01:43:32;;;;;;;35.07;12.57;;;5.90;91.80;;;;;;8347990;28;20463;-73
2021/04/23 01:47:32;;;;;;;17.63;10.60;;;5.90;92.00;;;;;;8345691;28;20462;-73
2021/04/23 01:51:42;;;;;;;21.77;11.07;;;5.90;92.00;;;;;;8334308;28;20454;-73
2021/04/23 01:55:43;;;;;;;31.97;11.20;;;5.80;92.00;;;;;;8364327;28;20940;-73
2021/04/23 01:59:44;;;;;;;19.90;11.40;;;5.80;92.30;;;;;;8347856;28;20461;-73
2021/04/23 02:03:46;;;;;;;18.70;11.33;;;5.70;92.40;;;;;;8347424;28;20559;-73
2021/04/23 02:07:47;;;;;;;22.43;10.87;;;5.70;92.30;;;;;;8357691;28;20491;-73
2021/04/23 02:11:50;;;;;;;26.27;10.60;;;5.70;92.40;;;;;;8347666;28;20504;-72
2021/04/23 02:15:51;;;;;;;26.80;10.87;;;5.70;92.50;;;;;;8348434;28;20449;-73
2021/04/23 02:19:55;;;;;;;25.77;10.13;;;5.70;92.60;;;;;;8344712;28;20487;-72
2021/04/23 02:24:01;;;;;;;17.63;11.70;;;5.70;92.50;;;;;;8326840;28;20675;-72
2021/04/23 02:28:04;;;;;;;27.77;12.60;;;5.60;92.50;;;;;;8355411;28;20523;-72
2021/04/23 02:32:09;;;;;;;25.17;11.87;;;5.60;92.60;;;;;;8363077;28;20440;-72
2021/04/23 02:36:10;;;;;;;23.50;11.07;;;5.60;92.70;;;;;;8352021;28;20445;-72
2021/04/23 02:40:14;;;;;;;22.00;12.57;;;5.50;92.60;;;;;;8339151;28;20200;-73
2021/04/23 02:44:16;;;;;;;25.00;10.87;;;5.50;92.70;;;;;;8339746;28;20601;-72
2021/04/23 02:48:18;;;;;;;19.80;12.30;;;5.40;92.70;;;;;;8344250;28;20471;-73
2021/04/23 02:52:19;;;;;;;25.07;13.07;;;5.40;92.80;;;;;;8340913;28;20846;-72
2021/04/23 02:56:24;;;;;;;39.83;14.90;;;5.30;92.70;;;;;;8363694;28;20444;-72
2021/04/23 03:00:28;;;;;;;32.60;13.77;;;5.30;92.80;;;;;;8346826;28;20516;-73
2021/04/23 03:04:32;;;;;;;20.70;12.40;;;5.20;92.80;;;;;;8359827;28;20465;-73
2021/04/23 03:08:34;;;;;;;35.60;15.80;;;5.10;92.80;;;;;;8346278;28;20456;-72
2021/04/23 03:12:37;;;;;;;25.03;14.60;;;5.10;92.90;;;;;;8344817;28;20223;-72
2021/04/23 03:16:41;;;;;;;35.90;15.00;;;5.00;92.80;;;;;;8347485;28;20457;-72
2021/04/23 03:20:46;;;;;;;40.73;15.67;;;4.90;92.80;;;;;;8343869;28;20474;-72
2021/04/23 03:24:47;;;;;;;47.73;15.83;;;4.90;92.90;;;;;;8348256;28;20464;-72
2021/04/23 03:28:48;;;;;;;32.00;17.27;;;4.80;93.10;;;;;;8324905;28;20465;-72
2021/04/23 03:32:55;;;;;;;29.13;16.47;;;4.80;93.20;;;;;;8357288;28;20462;-72
2021/04/23 03:36:59;;;;;;;38.13;14.47;;;4.80;93.40;;;;;;8341819;28;20447;-73
2021/04/23 03:41:03;;;;;;;35.57;14.93;;;4.80;93.40;;;;;;8338865;28;20827;-73
2021/04/23 03:45:06;;;;;;;34.20;15.43;;;4.80;93.40;;;;;;8347889;28;20912;-73
2021/04/23 03:49:10;;;;;;;36.57;18.57;;;4.80;93.30;;;;;;8340799;28;20504;-72
2021/04/23 03:53:12;;;;;;;42.17;19.00;;;4.70;93.50;;;;;;8358751;28;20482;-72
2021/04/23 03:57:13;;;;;;;46.37;19.97;;;4.70;93.50;;;;;;8345469;28;20508;-73
2021/04/23 04:01:18;;;;;;;53.50;18.80;;;4.70;93.60;;;;;;8339951;28;20535;-73
2021/04/23 04:05:21;;;;;;;31.17;17.90;;;4.60;93.80;;;;;;8345083;28;20247;-72
2021/04/23 04:09:21;;;;;;;42.33;19.00;;;4.60;93.60;;;;;;8359644;28;20442;-73
2021/04/23 04:13:26;;;;;;;37.13;19.37;;;4.60;93.70;;;;;;8346349;28;20489;-72
2021/04/23 04:17:27;;;;;;;40.87;19.37;;;4.60;93.80;;;;;;8349081;28;20699;-72
2021/04/23 04:21:27;;;;;;;48.87;18.13;;;4.50;93.70;;;;;;8342127;28;21218;-73
2021/04/23 04:25:35;;;;;;;52.90;20.77;;;4.50;93.90;;;;;;8339680;28;20624;-73
2021/04/23 04:29:39;;;;;;;33.43;18.23;;;4.50;93.90;;;;;;8325950;28;20203;-74
2021/04/23 04:33:40;;;;;;;34.37;18.20;;;4.60;93.90;;;;;;8346856;28;20447;-73
2021/04/23 04:37:41;;;;;;;45.40;20.73;;;4.50;93.80;;;;;;8354508;28;20451;-74
2021/04/23 04:41:42;;;;;;;45.30;23.10;;;4.50;93.90;;;;;;8354413;28;20442;-72
2021/04/23 04:45:47;;;;;;;55.10;23.70;;;4.50;94.00;;;;;;8344373;28;20327;-73
2021/04/23 04:49:48;;;;;;;31.13;17.73;;;4.50;94.20;;;;;;8344261;28;20204;-72
2021/04/23 04:53:56;;;;;;;39.27;18.80;;;4.60;94.20;;;;;;8347917;28;20459;-72
2021/04/23 04:58:00;;;;;;;38.47;20.37;;;4.70;94.30;;;;;;8331967;28;20540;-73
2021/04/23 05:02:00;;;;;;;43.23;20.73;;;4.70;94.30;;;;;;8347379;28;20293;-74
2021/04/23 05:06:03;;;;;;;42.73;21.60;;;4.80;94.40;;;;;;8348040;28;20517;-73
2021/04/23 05:10:05;;;;;;;43.90;21.13;;;4.80;94.40;;;;;;8345358;28;20612;-73
2021/04/23 05:14:08;;;;;;;48.33;19.00;;;4.90;94.40;;;;;;8347014;28;20474;-72
2021/04/23 05:18:09;;;;;;;41.80;19.10;;;5.00;94.40;;;;;;8339130;28;21034;-73
2021/04/23 05:22:20;;;;;;;46.80;21.07;;;5.10;94.40;;;;;;8343532;28;20467;-72
2021/04/23 05:26:23;;;;;;;45.93;20.17;;;5.20;94.30;;;;;;8351657;28;20468;-75
2021/04/23 05:30:28;;;;;;;35.83;18.47;;;5.30;94.40;;;;;;8343349;28;20967;-73
2021/04/23 05:34:42;;;;;;;33.47;19.03;;;5.50;94.30;;;;;;8366852;28;20440;-74
2021/04/23 05:38:43;;;;;;;35.30;17.40;;;5.60;94.20;;;;;;8350031;28;20441;-73
2021/04/23 05:42:44;;;;;;;75.50;23.90;;;5.70;94.10;;;;;;8346433;28;20457;-73
2021/04/23 05:46:45;;;;;;;38.23;18.80;;;5.90;94.10;;;;;;8351703;28;20697;-73
2021/04/23 05:50:47;;;;;;;34.03;16.47;;;6.00;94.00;;;;;;8358149;28;20941;-72
2021/04/23 05:54:48;;;;;;;39.90;16.90;;;6.10;93.80;;;;;;8347588;28;20229;-72
2021/04/23 05:58:48;;;;;;;34.30;16.10;;;6.30;93.80;;;;;;8344023;28;20438;-73
2021/04/23 06:02:50;;;;;;;33.90;15.03;;;6.40;93.70;;;;;;8353579;28;20248;-73
2021/04/23 06:06:53;;;;;;;41.77;17.03;;;6.50;93.50;;;;;;8360502;28;20191;-73
2021/04/23 06:10:54;;;;;;;25.93;14.40;;;6.60;93.40;;;;;;8381639;28;20425;-73
2021/04/23 06:14:55;;;;;;;30.93;13.93;;;6.70;93.20;;;;;;8359300;28;20449;-72
2021/04/23 06:18:59;;;;;;;27.20;14.93;;;6.90;93.10;;;;;;8344806;28;20465;-73
2021/04/23 06:23:14;;;;;;;30.50;15.67;;;7.10;93.10;;;;;;8323022;28;20470;-75
2021/04/23 06:27:16;;;;;;;33.77;14.40;;;7.20;92.70;;;;;;8327819;28;20450;-72
2021/04/23 06:31:20;;;;;;;34.00;13.30;;;7.30;92.70;;;;;;8356995;28;20445;-73
2021/04/23 06:35:26;;;;;;;19.27;11.43;;;7.50;93.40;;;;;;8359513;28;20450;-73
2021/04/23 06:39:26;;;;;;;27.43;13.30;;;7.80;94.80;;;;;;8352108;28;20474;-73
2021/04/23 06:43:27;;;;;;;23.67;12.10;;;8.30;95.50;;;;;;8345609;28;20469;-74
2021/04/23 06:47:27;;;;;;;25.00;11.03;;;9.20;94.50;;;;;;8349390;28;20697;-72
2021/04/23 06:51:28;;;;;;;28.30;14.00;;;10.00;91.80;;;;;;8352510;28;20202;-73
2021/04/23 06:55:29;;;;;;;29.67;12.80;;;10.70;89.00;;;;;;8358445;28;20202;-73
2021/04/23 06:59:30;;;;;;;25.23;11.70;;;11.50;85.20;;;;;;8349781;28;20195;-73
2021/04/23 07:03:31;;;;;;;29.90;11.80;;;12.00;80.70;;;;;;8347074;28;20473;-72
2021/04/23 07:07:31;;;;;;;16.00;10.93;;;12.80;77.90;;;;;;8345715;28;20237;-74
2021/04/23 07:11:32;;;;;;;22.07;9.50;;;13.50;75.00;;;;;;8349751;28;20198;-73
2021/04/23 07:15:41;;;;;;;17.63;9.70;;;14.10;72.40;;;;;;8345586;28;20191;-74
2021/04/23 07:19:42;;;;;;;19.30;10.93;;;14.90;70.60;;;;;;8347850;28;20666;-74
2021/04/23 07:23:43;;;;;;;24.70;10.53;;;15.40;67.60;;;;;;8354775;28;20864;-74
2021/04/23 07:27:44;;;;;;;26.67;12.77;;;15.90;65.10;;;;;;8351029;28;20204;-73
2021/04/23 07:31:45;;;;;;;14.13;9.80;;;16.40;61.10;;;;;;8338916;28;20844;-74
2021/04/23 07:35:51;;;;;;;19.70;10.00;;;16.90;59.00;;;;;;8358497;28;20444;-73
2021/04/23 07:39:53;;;;;;;26.17;11.60;;;17.20;57.10;;;;;;8341430;28;20461;-74
2021/04/23 07:43:53;;;;;;;19.10;10.97;;;17.30;56.40;;;;;;8341576;28;20472;-73
2021/04/23 07:48:00;;;;;;;23.00;11.37;;;17.40;55.70;;;;;;8347008;28;20438;-75
2021/04/23 07:52:02;;;;;;;19.73;10.47;;;17.40;54.60;;;;;;8342297;28;20237;-73
2021/04/23 07:56:03;;;;;;;19.43;11.17;;;17.70;54.50;;;;;;8347352;28;20451;-74
2021/04/23 08:00:06;;;;;;;17.63;10.77;;;18.00;54.00;;;;;;8342316;28;20525;-73
2021/04/23 08:04:07;;;;;;;21.83;11.40;;;18.50;52.90;;;;;;8355875;28;21038;-73
2021/04/23 08:08:08;;;;;;;20.13;10.83;;;19.10;51.30;;;;;;8344996;28;20454;-75
2021/04/23 08:12:12;;;;;;;17.33;10.20;;;19.30;48.60;;;;;;8350842;28;20678;-74
2021/04/23 08:16:16;;;;;;;19.07;11.33;;;18.90;48.60;;;;;;8347934;28;20844;-73
2021/04/23 08:20:17;;;;;;;15.50;10.83;;;18.70;49.10;;;;;;8350311;28;20939;-73
2021/04/23 08:24:25;;;;;;;18.47;11.20;;;19.30;49.50;;;;;;8369850;28;20443;-73
2021/04/23 08:28:26;;;;;;;16.43;9.73;;;20.30;46.30;;;;;;8384658;28;20437;-74
2021/04/23 08:32:28;;;;;;;18.33;10.53;;;20.50;45.20;;;;;;8356072;28;20449;-74
2021/04/23 08:36:34;;;;;;;22.10;10.60;;;20.50;44.80;;;;;;8339788;28;20492;-73
2021/04/23 08:40:35;;;;;;;19.93;9.83;;;20.90;42.90;;;;;;8368759;28;20479;-74
2021/04/23 08:44:36;;;;;;;16.83;10.80;;;21.00;42.00;;;;;;8352148;28;20476;-75
2021/04/23 08:48:47;;;;;;;16.20;10.77;;;21.00;42.30;;;;;;8380660;28;20269;-75
2021/04/23 08:52:49;;;;;;;18.73;11.57;;;21.10;42.60;;;;;;8356340;28;20450;-74
2021/04/23 08:56:50;;;;;;;16.37;10.13;;;22.00;41.90;;;;;;8349122;28;20450;-73
2021/04/23 09:00:52;;;;;;;15.13;9.77;;;23.00;40.00;;;;;;8365557;28;20455;-72
2021/04/23 09:04:53;;;;;;;15.70;9.10;;;23.40;38.40;;;;;;8354244;28;20472;-73
2021/04/23 09:08:58;;;;;;;17.30;10.60;;;23.80;38.10;;;;;;8348994;28;20821;-73
2021/04/23 09:13:07;;;;;;;20.17;10.33;;;23.80;37.10;;;;;;8345677;28;20217;-74
2021/04/23 09:17:24;;;;;;;18.00;11.30;;;23.30;37.40;;;;;;8345038;28;20544;-74
2021/04/23 09:21:44;;;;;;;19.17;10.13;;;22.80;38.10;;;;;;8376657;28;20459;-74
2021/04/23 09:25:57;;;;;;;15.47;10.70;;;22.40;38.00;;;;;;8343149;28;20473;-74
2021/04/23 09:30:10;;;;;;;20.13;11.30;;;21.90;38.90;;;;;;8350563;28;20454;-73
2021/04/23 09:34:11;;;;;;;16.23;9.77;;;22.00;39.20;;;;;;8340861;28;20952;-75
2021/04/23 09:38:12;;;;;;;15.73;11.17;;;22.20;37.90;;;;;;8342876;28;20536;-74
2021/04/23 09:42:15;;;;;;;15.43;10.10;;;21.70;39.10;;;;;;8348711;28;20448;-73
2021/04/23 09:46:35;;;;;;;19.30;10.70;;;21.90;40.00;;;;;;8343949;28;20442;-73
2021/04/23 09:50:38;;;;;;;13.80;9.77;;;22.60;38.80;;;;;;8351901;28;20433;-73
2021/04/23 09:54:39;;;;;;;15.00;10.97;;;22.80;38.40;;;;;;8332555;28;20449;-73
2021/04/23 09:58:43;;;;;;;15.33;10.30;;;22.50;38.40;;;;;;8345884;28;20453;-73
2021/04/23 10:02:54;;;;;;;13.87;9.70;;;22.30;38.70;;;;;;8349244;28;20822;-73
2021/04/23 10:07:24;;;;;;;18.07;10.37;;;22.40;38.40;;;;;;8368541;28;22170;-74
2021/04/23 10:11:40;;;;;;;13.20;9.43;;;22.40;39.00;;;;;;8344944;28;21036;-75
2021/04/23 10:15:43;;;;;;;18.40;11.47;;;22.60;38.20;;;;;;8341561;28;20495;-73
2021/04/23 10:19:44;;;;;;;17.57;11.60;;;22.00;38.00;;;;;;8339345;28;20477;-74
2021/04/23 10:23:46;;;;;;;16.60;11.47;;;22.00;40.10;;;;;;8332633;28;20492;-73
2021/04/23 10:27:49;;;;;;;19.63;11.53;;;22.00;40.00;;;;;;8339149;28;20660;-73
2021/04/23 10:31:53;;;;;;;19.27;12.60;;;21.50;40.00;;;;;;8352315;28;20520;-74
2021/04/23 10:35:56;;;;;;;15.33;10.47;;;21.30;41.60;;;;;;8344062;28;20450;-72
2021/04/23 10:40:02;;;;;;;16.90;11.87;;;21.70;39.90;;;;;;8367573;28;20445;-73
2021/04/23 10:44:04;;;;;;;22.33;9.73;;;21.80;40.30;;;;;;8336328;28;20478;-74
2021/04/23 10:48:14;;;;;;;15.70;9.20;;;22.30;38.80;;;;;;8339002;28;20443;-73
2021/04/23 10:52:15;;;;;;;12.30;9.57;;;22.60;38.30;;;;;;8347268;28;20497;-73
2021/04/23 10:56:34;;;;;;;16.73;11.10;;;22.60;37.20;;;;;;8337670;28;20565;-73
2021/04/23 11:00:44;;;;;;;17.23;9.57;;;22.00;39.40;;;;;;8358233;28;20190;-74
2021/04/23 11:05:00;;;;;;;15.30;8.77;;;21.90;38.80;;;;;;8336635;28;20878;-73
2021/04/23 11:09:03;;;;;;;19.07;9.70;;;21.90;40.00;;;;;;8344283;28;20469;-75
2021/04/23 11:13:23;;;;;;;14.30;9.63;;;22.10;39.10;;;;;;8353666;28;20533;-75
2021/04/23 11:17:32;;;;;;;16.40;10.07;;;21.90;38.90;;;;;;8340785;28;20558;-74
2021/04/23 11:21:35;;;;;;;16.90;9.23;;;21.90;38.50;;;;;;8342827;28;20456;-73
2021/04/23 11:25:58;;;;;;;15.90;9.17;;;22.00;38.30;;;;;;8334332;28;20485;-74
2021/04/23 11:30:06;;;;;;;18.80;10.20;;;22.20;36.20;;;;;;8340852;28;20476;-74
2021/04/23 11:34:37;;;;;;;16.87;9.90;;;22.10;38.60;;;;;;8344460;28;20455;-74
2021/04/23 11:39:07;;;;;;;19.70;10.50;;;22.40;37.90;;;;;;8347481;28;20446;-74
2021/04/23 11:43:36;;;;;;;20.87;12.40;;;22.50;37.90;;;;;;8342890;28;20465;-73
2021/04/23 11:47:38;;;;;;;23.90;13.43;;;22.60;38.60;;;;;;8341651;28;20817;-73
2021/04/23 11:51:49;;;;;;;24.33;12.17;;;22.60;38.50;;;;;;8341983;28;20454;-74
2021/04/23 11:55:54;;;;;;;23.63;13.40;;;22.70;38.90;;;;;;8334472;28;20499;-73
2021/04/23 11:59:56;;;;;;;21.40;13.07;;;22.80;38.60;;;;;;8345478;28;20529;-73
2021/04/23 12:03:57;;;;;;;21.07;12.93;;;22.70;38.00;;;;;;8346381;28;20469;-74
2021/04/23 12:08:04;;;;;;;31.50;14.23;;;22.60;38.10;;;;;;8328223;28;20564;-74
2021/04/23 12:12:12;;;;;;;25.23;16.33;;;22.30;38.30;;;;;;8340625;28;20237;-74
2021/04/23 12:16:18;;;;;;;23.67;15.30;;;21.60;40.10;;;;;;8339385;28;20441;-73
2021/04/23 12:20:31;;;;;;;25.23;13.70;;;21.40;40.20;;;;;;8329277;28;20468;-74
2021/04/23 12:24:33;;;;;;;27.87;13.90;;;21.30;40.40;;;;;;8347063;28;20440;-73
2021/04/23 12:28:47;;;;;;;26.20;14.00;;;21.50;40.50;;;;;;8343893;28;20471;-73
2021/04/23 12:32:59;;;;;;;27.50;14.80;;;21.60;40.20;;;;;;8353167;28;20445;-74
2021/04/23 12:37:00;;;;;;;17.33;13.07;;;21.90;40.00;;;;;;8325777;28;20509;-72
2021/04/23 12:41:01;;;;;;;28.77;13.80;;;22.40;40.80;;;;;;8344364;28;20450;-74
2021/04/23 12:45:02;;;;;;;27.93;14.47;;;22.30;39.50;;;;;;8343706;28;20298;-73
2021/04/23 12:49:11;;;;;;;24.97;13.57;;;22.10;39.70;;;;;;8341762;28;20190;-72
2021/04/23 12:53:20;;;;;;;28.07;13.27;;;22.40;40.10;;;;;;8364873;28;20447;-73
2021/04/23 12:57:32;;;;;;;33.57;13.33;;;22.50;38.60;;;;;;8347801;28;20445;-73
2021/04/23 13:01:47;;;;;;;23.70;11.90;;;22.40;38.50;;;;;;8351815;28;20470;-73
2021/04/23 13:05:48;;;;;;;27.17;13.63;;;22.20;39.50;;;;;;8354164;28;20974;-72
2021/04/23 13:09:58;;;;;;;20.10;12.27;;;22.10;39.90;;;;;;8341409;28;21157;-72
2021/04/23 13:14:21;;;;;;;17.63;12.47;;;22.00;39.10;;;;;;8354789;28;20802;-75
2021/04/23 13:18:32;;;;;;;19.23;10.20;;;22.20;39.00;;;;;;8351184;28;20570;-74
2021/04/23 13:22:33;;;;;;;21.77;12.20;;;22.50;38.90;;;;;;8348386;28;20476;-74
2021/04/23 13:26:38;;;;;;;22.70;11.97;;;22.50;38.00;;;;;;8349583;28;20448;-73
2021/04/23 13:30:56;;;;;;;31.93;11.57;;;22.50;38.30;;;;;;8367462;28;20436;-74
2021/04/23 13:34:58;;;;;;;18.10;10.73;;;22.40;39.20;;;;;;8354604;28;20788;-73
2021/04/23 13:39:01;;;;;;;18.40;11.73;;;22.30;38.40;;;;;;8354382;28;20418;-73
2021/04/23 13:43:08;;;;;;;20.23;10.57;;;22.50;38.40;;;;;;8343414;28;20494;-73
2021/04/23 13:47:10;;;;;;;19.57;10.80;;;22.70;37.30;;;;;;8349340;28;20447;-73
2021/04/23 13:51:14;;;;;;;25.80;13.30;;;23.00;37.40;;;;;;8348691;28;20445;-74
2021/04/23 13:55:16;;;;;;;23.27;11.93;;;23.00;36.40;;;;;;8358389;28;20431;-74
2021/04/23 13:59:23;;;;;;;11.47;9.30;;;22.60;37.10;;;;;;8350626;28;20450;-73
2021/04/23 14:03:25;;;;;;;14.07;9.37;;;22.40;37.40;;;;;;8349805;28;20451;-73
2021/04/23 14:07:28;;;;;;;16.90;10.00;;;22.50;37.80;;;;;;8345207;28;20776;-73
2021/04/23 14:11:29;;;;;;;18.57;10.43;;;22.50;36.90;;;;;;8337903;28;20426;-74
2021/04/23 14:15:32;;;;;;;19.03;11.30;;;22.50;37.10;;;;;;8346817;28;20455;-73
2021/04/23 14:19:35;;;;;;;14.83;9.77;;;22.40;37.20;;;;;;8369467;28;20674;-73
2021/04/23 14:23:37;;;;;;;22.10;10.00;;;22.10;37.70;;;;;;8347523;28;20448;-73
2021/04/23 14:27:38;;;;;;;17.60;10.00;;;22.10;36.90;;;;;;8347179;28;20441;-78
2021/04/23 14:31:39;;;;;;;13.93;9.17;;;22.20;37.30;;;;;;8347687;28;20454;-76
2021/04/23 14:35:42;;;;;;;25.03;10.97;;;22.40;37.60;;;;;;8350444;28;20451;-76
2021/04/23 14:39:43;;;;;;;17.93;10.73;;;22.50;36.70;;;;;;8337827;28;20455;-74
2021/04/23 14:43:44;;;;;;;18.70;9.20;;;22.40;36.40;;;;;;8318510;28;20487;-74
2021/04/23 14:47:45;;;;;;;12.63;9.00;;;22.30;36.50;;;;;;8341185;28;20499;-74
2021/04/23 14:51:55;;;;;;;15.37;8.13;;;22.30;36.30;;;;;;8338458;28;20416;-74
2021/04/23 14:55:56;;;;;;;18.53;9.97;;;22.10;36.60;;;;;;8351151;28;20197;-73
2021/04/23 15:00:02;;;;;;;13.30;8.80;;;22.10;36.60;;;;;;8347411;28;20415;-74
2021/04/23 15:04:04;;;;;;;12.93;9.20;;;22.10;36.40;;;;;;8350615;28;20456;-74
2021/04/23 15:08:07;;;;;;;50.63;21.93;;;22.00;36.50;;;;;;8352514;28;20455;-74
2021/04/23 15:12:19;;;;;;;13.63;8.60;;;22.00;36.90;;;;;;8366600;28;20447;-75
2021/04/23 15:16:21;;;;;;;15.93;9.57;;;22.00;34.90;;;;;;8345449;28;20478;-75
2021/04/23 15:20:25;;;;;;;24.67;9.70;;;22.00;35.90;;;;;;8348221;28;20464;-76
2021/04/23 15:24:30;;;;;;;22.57;10.03;;;21.90;35.50;;;;;;8352162;28;20474;-75
2021/04/23 15:28:33;;;;;;;20.87;9.90;;;21.70;35.80;;;;;;8346338;28;20527;-75
2021/04/23 15:32:36;;;;;;;13.97;8.30;;;22.00;36.60;;;;;;8364387;28;20451;-75
2021/04/23 15:36:39;;;;;;;16.27;9.43;;;22.20;34.40;;;;;;8347922;28;20434;-75
2021/04/23 15:40:42;;;;;;;25.10;8.47;;;22.40;34.00;;;;;;8343177;28;20471;-74
2021/04/23 15:44:42;;;;;;;19.37;10.93;;;22.50;34.40;;;;;;8329619;28;20481;-74
2021/04/23 15:48:49;;;;;;;16.47;9.07;;;22.30;35.20;;;;;;8342622;28;20485;-74
2021/04/23 15:52:50;;;;;;;17.33;9.10;;;22.10;36.00;;;;;;8333591;28;20206;-72
2021/04/23 15:57:01;;;;;;;17.27;10.83;;;22.00;35.70;;;;;;8358462;28;20472;-75
2021/04/23 16:01:04;;;;;;;20.27;10.73;;;21.80;36.30;;;;;;8335996;28;21389;-73
2021/04/23 16:05:05;;;;;;;21.83;11.73;;;21.60;38.00;;;;;;8338706;28;20479;-74
2021/04/23 16:09:06;;;;;;;20.40;11.10;;;21.40;37.50;;;;;;8335860;28;20449;-74
2021/04/23 16:13:14;;;;;;;16.87;9.87;;;21.40;37.40;;;;;;8351251;28;20542;-72
2021/04/23 16:17:17;;;;;;;18.90;10.10;;;21.30;38.20;;;;;;8314764;28;20570;-74
2021/04/23 16:21:19;;;;;;;21.37;9.70;;;21.10;37.70;;;;;;8336376;28;20453;-75
2021/04/23 16:25:25;;;;;;;16.17;10.83;;;21.20;38.40;;;;;;8338971;28;20464;-75
2021/04/23 16:29:30;;;;;;;25.87;9.67;;;21.20;37.20;;;;;;8354446;28;20554;-74
2021/04/23 16:33:31;;;;;;;16.90;10.37;;;20.90;37.80;;;;;;8329416;28;20527;-73
2021/04/23 16:37:32;;;;;;;15.47;9.70;;;20.80;38.10;;;;;;8343733;28;20351;-73
2021/04/23 16:41:33;;;;;;;17.30;9.63;;;20.60;38.10;;;;;;8337804;28;20199;-73
2021/04/23 16:45:37;;;;;;;17.20;10.40;;;20.40;38.10;;;;;;8339479;28;20943;-77
2021/04/23 16:50:26;;;;;;;15.37;9.40;;;20.10;38.70;;;;;;8352341;28;21146;-76
2021/04/23 16:54:27;;;;;;;24.30;8.93;;;19.90;38.20;;;;;;8334712;28;20195;-77
2021/04/23 16:58:36;;;;;;;19.23;8.40;;;19.70;39.20;;;;;;8356599;28;20441;-76
2021/04/23 17:02:41;;;;;;;20.47;9.67;;;19.40;40.30;;;;;;8375090;28;20632;-77
2021/04/23 17:06:56;;;;;;;18.83;10.70;;;19.00;40.60;;;;;;8372579;28;20451;-77
2021/04/23 17:11:06;;;;;;;17.30;8.63;;;18.70;41.70;;;;;;8358205;28;21041;-77
2021/04/23 17:15:24;;;;;;;25.23;10.23;;;18.40;41.70;;;;;;8382155;28;20453;-77
2021/04/23 17:19:35;;;;;;;16.57;9.40;;;18.10;41.20;;;;;;8343814;28;20484;-76
2021/04/23 17:23:38;;;;;;;17.77;8.40;;;17.90;42.30;;;;;;8350901;28;20635;-76
2021/04/23 17:27:47;;;;;;;26.93;9.50;;;17.70;42.70;;;;;;8374585;28;20455;-77
2021/04/23 17:31:52;;;;;;;18.93;8.83;;;17.60;42.90;;;;;;8342587;28;21011;-77
2021/04/23 17:40:52;;;;;;;25.10;9.50;;;17.50;43.60;;;;;;8365148;28;20435;-76
2021/04/23 17:45:01;;;;;;;26.37;9.47;;;17.50;43.90;;;;;;8354595;28;20485;-77
2021/04/23 17:49:06;;;;;;;20.80;9.03;;;17.50;44.20;;;;;;8353891;28;20444;-76
2021/04/23 17:53:07;;;;;;;19.60;9.37;;;17.30;44.60;;;;;;8355016;28;20453;-74
2021/04/23 17:57:08;;;;;;;15.50;9.30;;;17.00;45.00;;;;;;8336470;28;20454;-73
2021/04/23 18:01:13;;;;;;;17.83;11.17;;;16.60;45.80;;;;;;8342613;28;20470;-74
2021/04/23 18:05:25;;;;;;;17.27;9.10;;;16.30;46.50;;;;;;8346691;28;20488;-76
2021/04/23 18:09:33;;;;;;;17.57;9.50;;;15.90;47.20;;;;;;8358334;28;20462;-75
2021/04/23 18:13:38;;;;;;;15.60;8.50;;;15.60;48.00;;;;;;8331526;28;20561;-75
2021/04/23 18:17:45;;;;;;;23.97;10.57;;;15.30;49.10;;;;;;8347646;28;20210;-75
2021/04/23 18:21:57;;;;;;;21.20;11.90;;;15.00;49.60;;;;;;8341017;28;20456;-74
2021/04/23 18:26:00;;;;;;;19.80;11.77;;;14.80;50.20;;;;;;8317625;28;20484;-77
2021/04/23 18:30:02;;;;;;;24.30;12.90;;;14.50;50.50;;;;;;8325642;28;20460;-75
2021/04/23 18:34:08;;;;;;;21.93;11.40;;;14.30;51.30;;;;;;8354362;28;20528;-75
2021/04/23 18:38:18;;;;;;;24.50;12.17;;;14.10;51.80;;;;;;8338280;28;20522;-74
2021/04/23 18:42:31;;;;;;;22.27;12.87;;;13.90;52.20;;;;;;8334998;28;20831;-75
2021/04/23 18:46:40;;;;;;;32.13;13.80;;;13.70;53.30;;;;;;8318672;28;20447;-75
2021/04/23 18:50:43;;;;;;;21.70;12.07;;;13.50;53.90;;;;;;8320814;28;20485;-72
2021/04/23 18:54:48;;;;;;;26.37;15.03;;;13.30;54.50;;;;;;8347614;28;20477;-78
2021/04/23 18:58:54;;;;;;;26.97;13.77;;;13.20;54.90;;;;;;8338244;28;20453;-76
2021/04/23 19:02:59;;;;;;;30.10;17.00;;;13.00;55.50;;;;;;8333388;28;20466;-75
2021/04/23 19:07:03;;;;;;;25.87;13.67;;;12.80;56.20;;;;;;8368285;28;20438;-75
2021/04/23 19:11:04;;;;;;;16.03;11.00;;;12.80;56.80;;;;;;8357934;28;20450;-79
2021/04/23 19:15:13;;;;;;;20.80;10.63;;;12.70;57.20;;;;;;8348057;28;20195;-78
2021/04/23 19:19:14;;;;;;;20.60;11.40;;;12.70;57.90;;;;;;8346440;28;20242;-77
2021/04/23 19:23:18;;;;;;;22.40;11.23;;;12.60;58.60;;;;;;8355913;28;20525;-78
2021/04/23 19:27:25;;;;;;;16.03;8.73;;;12.50;58.50;;;;;;8339919;28;20814;-76
2021/04/23 19:31:32;;;;;;;21.33;9.60;;;12.30;58.70;;;;;;8344176;28;20451;-77
2021/04/23 19:35:33;;;;;;;26.20;12.00;;;12.00;59.70;;;;;;8334554;28;20441;-77
2021/04/23 19:39:52;;;;;;;23.40;13.47;;;11.90;60.10;;;;;;8361524;28;20440;-78
2021/04/23 19:43:58;;;;;;;21.50;10.70;;;11.70;59.90;;;;;;8364197;28;20468;-77
2021/04/23 19:48:02;;;;;;;14.67;10.80;;;11.60;60.80;;;;;;8342750;28;20452;-78
2021/04/23 19:52:06;;;;;;;23.97;9.57;;;11.50;60.70;;;;;;8357642;28;20451;-77
2021/04/23 19:56:09;;;;;;;16.17;9.77;;;11.40;61.50;;;;;;8333638;28;20449;-78
2021/04/23 20:00:21;;;;;;;17.47;9.17;;;11.30;61.20;;;;;;8380925;28;20441;-77
2021/04/23 20:04:23;;;;;;;19.80;9.83;;;11.20;61.30;;;;;;8344797;28;20533;-76
2021/04/23 20:08:24;;;;;;;15.40;9.43;;;11.10;62.00;;;;;;8365388;28;20444;-77
2021/04/23 20:12:28;;;;;;;25.10;9.20;;;11.00;61.80;;;;;;8366397;28;20448;-76
2021/04/23 20:16:33;;;;;;;24.50;9.63;;;11.00;62.10;;;;;;8383641;28;20185;-78
2021/04/23 20:20:42;;;;;;;21.63;10.20;;;10.90;62.30;;;;;;8388241;28;20452;-77
2021/04/23 20:24:45;;;;;;;21.30;8.80;;;10.90;62.80;;;;;;8361458;28;20555;-76
2021/04/23 20:28:53;;;;;;;19.97;9.00;;;10.80;62.90;;;;;;8351377;28;20473;-76
2021/04/23 20:32:56;;;;;;;22.60;8.97;;;10.70;63.20;;;;;;8362826;28;20551;-77
2021/04/23 20:37:11;;;;;;;21.17;10.87;;;10.70;64.10;;;;;;8390293;28;20439;-77
2021/04/23 20:41:13;;;;;;;25.03;12.07;;;10.60;64.20;;;;;;8361460;28;20520;-76
2021/04/23 20:45:20;;;;;;;31.77;13.13;;;10.50;65.00;;;;;;8361591;28;20492;-77
2021/04/23 20:49:27;;;;;;;29.77;11.80;;;10.40;65.20;;;;;;8363022;28;20528;-76
2021/04/23 20:53:32;;;;;;;32.23;10.73;;;10.40;65.60;;;;;;8358312;28;20439;-77
2021/04/23 20:57:34;;;;;;;22.20;10.70;;;10.30;66.20;;;;;;8355848;28;20528;-77